Terminal Aerodrome Forecast
Issued by NWS Upton, NY

Home | Current Version | Previous Version | Text Only | Print | Product List | Glossary On
Versions: 1 2 3 4 5 6 7 8 9 10 11 12 13 14 15 16 17 18 19 20 21 22 23 24 25 26 27 28 29 30
132
FTUS41 KOKX 240905 AAA
TAFJFK
TAF AMD
KJFK 240905Z 2409/2512 10012G20KT 4SM -SHRA VCTS BKN020 OVC045CB
      TEMPO 2409/2411 2SM SHRA BKN015
     FM241300 11011G19KT 5SM -SHRA OVC020
     FM241600 28006KT P6SM VCSH OVC040
     FM241800 34008KT P6SM VCSH OVC040
     FM242000 01010G19KT P6SM VCSH OVC040
     FM250000 04010G17KT P6SM VCSH OVC045
     FM250500 05010KT P6SM VCSH OVC015=

USA.gov is the U.S. government's official web portal to all federal, state and local government web resources and services.